sensor_id;sensor_type;location;lat;lon;timestamp;P1;durP1;ratioP1;P2;durP2;ratioP2
13335;SDS011;6737;51.480;11.962;2022-10-29T00:00:41;9.73;;;2.50;;
13335;SDS011;6737;51.480;11.962;2022-10-29T00:03:07;3.43;;;2.30;;
13335;SDS011;6737;51.480;11.962;2022-10-29T00:05:33;5.37;;;2.17;;
13335;SDS011;6737;51.480;11.962;2022-10-29T00:07:59;4.23;;;2.10;;
13335;SDS011;6737;51.480;11.962;2022-10-29T00:10:26;5.20;;;2.30;;
13335;SDS011;6737;51.480;11.962;2022-10-29T00:12:52;5.63;;;2.17;;
13335;SDS011;6737;51.480;11.962;2022-10-29T00:15:18;6.07;;;2.70;;
13335;SDS011;6737;51.480;11.962;2022-10-29T00:17:43;6.83;;;2.30;;
13335;SDS011;6737;51.480;11.962;2022-10-29T00:20:09;4.85;;;2.25;;
13335;SDS011;6737;51.480;11.962;2022-10-29T00:22:35;6.47;;;2.47;;
13335;SDS011;6737;51.480;11.962;2022-10-29T00:25:01;5.25;;;2.10;;
13335;SDS011;6737;51.480;11.962;2022-10-29T00:27:27;3.43;;;2.10;;
13335;SDS011;6737;51.480;11.962;2022-10-29T00:29:53;4.97;;;2.30;;
13335;SDS011;6737;51.480;11.962;2022-10-29T00:32:20;5.93;;;2.30;;
13335;SDS011;6737;51.480;11.962;2022-10-29T00:34:46;3.30;;;2.10;;
13335;SDS011;6737;51.480;11.962;2022-10-29T00:37:11;4.93;;;2.27;;
13335;SDS011;6737;51.480;11.962;2022-10-29T00:39:37;6.53;;;2.60;;
13335;SDS011;6737;51.480;11.962;2022-10-29T00:42:03;5.97;;;2.10;;
13335;SDS011;6737;51.480;11.962;2022-10-29T00:44:32;4.70;;;2.07;;
13335;SDS011;6737;51.480;11.962;2022-10-29T00:49:44;8.43;;;2.60;;
13335;SDS011;6737;51.480;11.962;2022-10-29T00:52:23;7.73;;;2.40;;
13335;SDS011;6737;51.480;11.962;2022-10-29T00:54:54;3.43;;;2.00;;
13335;SDS011;6737;51.480;11.962;2022-10-29T00:57:23;5.17;;;2.30;;
13335;SDS011;6737;51.480;11.962;2022-10-29T00:59:55;4.35;;;2.03;;
13335;SDS011;6737;51.480;11.962;2022-10-29T01:02:21;5.13;;;2.10;;
13335;SDS011;6737;51.480;11.962;2022-10-29T01:04:48;5.10;;;2.43;;
13335;SDS011;6737;51.480;11.962;2022-10-29T01:07:16;3.43;;;2.17;;
13335;SDS011;6737;51.480;11.962;2022-10-29T01:09:42;4.35;;;2.45;;
13335;SDS011;6737;51.480;11.962;2022-10-29T01:26:27;5.40;;;2.20;;
13335;SDS011;6737;51.480;11.962;2022-10-29T01:32:23;3.57;;;2.30;;
13335;SDS011;6737;51.480;11.962;2022-10-29T01:39:59;4.93;;;2.30;;
13335;SDS011;6737;51.480;11.962;2022-10-29T01:42:38;4.18;;;2.58;;
13335;SDS011;6737;51.480;11.962;2022-10-29T01:45:20;6.43;;;2.53;;
13335;SDS011;6737;51.480;11.962;2022-10-29T01:47:55;4.77;;;2.50;;
13335;SDS011;6737;51.480;11.962;2022-10-29T01:50:24;7.22;;;2.45;;
13335;SDS011;6737;51.480;11.962;2022-10-29T01:52:51;5.47;;;2.40;;
13335;SDS011;6737;51.480;11.962;2022-10-29T01:55:19;5.85;;;2.30;;
13335;SDS011;6737;51.480;11.962;2022-10-29T01:57:47;6.15;;;2.55;;
13335;SDS011;6737;51.480;11.962;2022-10-29T02:00:14;3.60;;;2.47;;
13335;SDS011;6737;51.480;11.962;2022-10-29T02:08:37;10.60;;;2.53;;
13335;SDS011;6737;51.480;11.962;2022-10-29T02:10:52;5.77;;;2.50;;
13335;SDS011;6737;51.480;11.962;2022-10-29T02:13:35;6.97;;;2.53;;
13335;SDS011;6737;51.480;11.962;2022-10-29T02:16:05;4.57;;;2.30;;
13335;SDS011;6737;51.480;11.962;2022-10-29T02:18:40;5.60;;;2.40;;
13335;SDS011;6737;51.480;11.962;2022-10-29T02:21:16;4.50;;;2.60;;
13335;SDS011;6737;51.480;11.962;2022-10-29T02:23:43;4.25;;;2.35;;
13335;SDS011;6737;51.480;11.962;2022-10-29T02:26:09;6.97;;;2.67;;
13335;SDS011;6737;51.480;11.962;2022-10-29T02:28:36;5.30;;;2.40;;
13335;SDS011;6737;51.480;11.962;2022-10-29T02:31:02;4.90;;;2.33;;
13335;SDS011;6737;51.480;11.962;2022-10-29T02:33:28;4.57;;;2.33;;
13335;SDS011;6737;51.480;11.962;2022-10-29T02:35:53;7.57;;;2.67;;
13335;SDS011;6737;51.480;11.962;2022-10-29T02:38:19;7.03;;;2.70;;
13335;SDS011;6737;51.480;11.962;2022-10-29T02:40:45;8.40;;;2.70;;
13335;SDS011;6737;51.480;11.962;2022-10-29T02:43:10;6.47;;;2.47;;
13335;SDS011;6737;51.480;11.962;2022-10-29T02:45:36;5.17;;;2.20;;
13335;SDS011;6737;51.480;11.962;2022-10-29T02:48:02;3.63;;;2.40;;
13335;SDS011;6737;51.480;11.962;2022-10-29T02:50:28;4.13;;;2.40;;
13335;SDS011;6737;51.480;11.962;2022-10-29T02:52:54;5.33;;;2.40;;
13335;SDS011;6737;51.480;11.962;2022-10-29T02:55:19;6.57;;;2.60;;
13335;SDS011;6737;51.480;11.962;2022-10-29T02:57:45;5.63;;;2.50;;
13335;SDS011;6737;51.480;11.962;2022-10-29T03:00:11;5.07;;;2.67;;
13335;SDS011;6737;51.480;11.962;2022-10-29T03:02:38;7.20;;;2.40;;
13335;SDS011;6737;51.480;11.962;2022-10-29T03:05:04;5.83;;;2.60;;
13335;SDS011;6737;51.480;11.962;2022-10-29T03:07:34;6.00;;;2.40;;
13335;SDS011;6737;51.480;11.962;2022-10-29T03:10:02;9.17;;;2.70;;
13335;SDS011;6737;51.480;11.962;2022-10-29T03:12:29;5.47;;;2.33;;
13335;SDS011;6737;51.480;11.962;2022-10-29T03:14:54;6.30;;;2.73;;
13335;SDS011;6737;51.480;11.962;2022-10-29T03:17:20;7.23;;;2.50;;
13335;SDS011;6737;51.480;11.962;2022-10-29T03:19:46;3.83;;;2.37;;
13335;SDS011;6737;51.480;11.962;2022-10-29T03:22:12;8.85;;;2.55;;
13335;SDS011;6737;51.480;11.962;2022-10-29T03:24:37;5.23;;;2.70;;
13335;SDS011;6737;51.480;11.962;2022-10-29T03:27:03;5.37;;;2.53;;
13335;SDS011;6737;51.480;11.962;2022-10-29T03:29:29;10.43;;;2.87;;
13335;SDS011;6737;51.480;11.962;2022-10-29T03:31:54;7.47;;;2.30;;
13335;SDS011;6737;51.480;11.962;2022-10-29T03:34:20;4.63;;;2.40;;
13335;SDS011;6737;51.480;11.962;2022-10-29T03:36:46;6.47;;;2.20;;
13335;SDS011;6737;51.480;11.962;2022-10-29T03:39:12;4.23;;;2.20;;
13335;SDS011;6737;51.480;11.962;2022-10-29T03:41:38;5.10;;;2.70;;
13335;SDS011;6737;51.480;11.962;2022-10-29T03:44:03;6.57;;;2.60;;
13335;SDS011;6737;51.480;11.962;2022-10-29T03:46:29;5.50;;;2.30;;
13335;SDS011;6737;51.480;11.962;2022-10-29T03:48:55;6.10;;;2.50;;
13335;SDS011;6737;51.480;11.962;2022-10-29T03:51:21;3.33;;;2.40;;
13335;SDS011;6737;51.480;11.962;2022-10-29T03:53:47;4.07;;;2.33;;
13335;SDS011;6737;51.480;11.962;2022-10-29T03:56:12;3.40;;;2.20;;
13335;SDS011;6737;51.480;11.962;2022-10-29T03:58:38;4.63;;;2.23;;
13335;SDS011;6737;51.480;11.962;2022-10-29T04:01:05;6.67;;;2.60;;
13335;SDS011;6737;51.480;11.962;2022-10-29T04:03:33;4.07;;;2.17;;
13335;SDS011;6737;51.480;11.962;2022-10-29T04:06:01;5.13;;;2.33;;
13335;SDS011;6737;51.480;11.962;2022-10-29T04:08:34;5.17;;;2.53;;
13335;SDS011;6737;51.480;11.962;2022-10-29T04:10:59;3.17;;;2.10;;
13335;SDS011;6737;51.480;11.962;2022-10-29T04:13:25;5.47;;;2.40;;
13335;SDS011;6737;51.480;11.962;2022-10-29T04:15:54;8.23;;;2.80;;
13335;SDS011;6737;51.480;11.962;2022-10-29T04:18:22;7.07;;;2.43;;
13335;SDS011;6737;51.480;11.962;2022-10-29T04:20:48;6.30;;;2.43;;
13335;SDS011;6737;51.480;11.962;2022-10-29T04:23:14;3.60;;;2.23;;
13335;SDS011;6737;51.480;11.962;2022-10-29T04:25:39;5.97;;;2.50;;
13335;SDS011;6737;51.480;11.962;2022-10-29T04:28:05;3.53;;;2.37;;
13335;SDS011;6737;51.480;11.962;2022-10-29T04:30:31;4.33;;;2.53;;
13335;SDS011;6737;51.480;11.962;2022-10-29T04:32:57;6.00;;;2.57;;
13335;SDS011;6737;51.480;11.962;2022-10-29T04:35:24;4.90;;;2.60;;
13335;SDS011;6737;51.480;11.962;2022-10-29T04:37:51;4.73;;;2.60;;
13335;SDS011;6737;51.480;11.962;2022-10-29T04:40:20;4.67;;;2.33;;
13335;SDS011;6737;51.480;11.962;2022-10-29T04:42:48;3.63;;;2.50;;
13335;SDS011;6737;51.480;11.962;2022-10-29T04:45:13;5.60;;;2.67;;
13335;SDS011;6737;51.480;11.962;2022-10-29T04:47:39;5.77;;;2.60;;
13335;SDS011;6737;51.480;11.962;2022-10-29T04:50:05;7.13;;;2.67;;
13335;SDS011;6737;51.480;11.962;2022-10-29T04:52:31;5.40;;;2.47;;
13335;SDS011;6737;51.480;11.962;2022-10-29T04:54:56;3.63;;;2.40;;
13335;SDS011;6737;51.480;11.962;2022-10-29T04:57:22;4.87;;;2.50;;
13335;SDS011;6737;51.480;11.962;2022-10-29T04:59:48;5.20;;;2.50;;
13335;SDS011;6737;51.480;11.962;2022-10-29T05:02:14;4.67;;;2.60;;
13335;SDS011;6737;51.480;11.962;2022-10-29T05:04:39;7.40;;;3.10;;
13335;SDS011;6737;51.480;11.962;2022-10-29T05:07:05;5.67;;;2.50;;
13335;SDS011;6737;51.480;11.962;2022-10-29T05:09:31;7.77;;;2.70;;
13335;SDS011;6737;51.480;11.962;2022-10-29T05:11:57;5.93;;;2.50;;
13335;SDS011;6737;51.480;11.962;2022-10-29T05:14:22;4.40;;;2.30;;
13335;SDS011;6737;51.480;11.962;2022-10-29T05:16:48;9.80;;;2.73;;
13335;SDS011;6737;51.480;11.962;2022-10-29T05:19:14;4.77;;;2.60;;
13335;SDS011;6737;51.480;11.962;2022-10-29T05:21:39;6.20;;;2.70;;
13335;SDS011;6737;51.480;11.962;2022-10-29T05:24:05;3.20;;;2.20;;
13335;SDS011;6737;51.480;11.962;2022-10-29T05:26:31;4.97;;;2.37;;
13335;SDS011;6737;51.480;11.962;2022-10-29T05:28:57;5.87;;;2.20;;
13335;SDS011;6737;51.480;11.962;2022-10-29T05:31:23;4.37;;;1.93;;
13335;SDS011;6737;51.480;11.962;2022-10-29T05:33:49;4.57;;;2.10;;
13335;SDS011;6737;51.480;11.962;2022-10-29T05:36:14;4.07;;;2.47;;
13335;SDS011;6737;51.480;11.962;2022-10-29T05:38:40;5.87;;;2.47;;
13335;SDS011;6737;51.480;11.962;2022-10-29T05:41:06;5.27;;;2.50;;
13335;SDS011;6737;51.480;11.962;2022-10-29T05:43:32;6.17;;;2.30;;
13335;SDS011;6737;51.480;11.962;2022-10-29T05:46:00;4.50;;;2.50;;
13335;SDS011;6737;51.480;11.962;2022-10-29T05:48:28;3.57;;;2.40;;
13335;SDS011;6737;51.480;11.962;2022-10-29T05:50:53;5.93;;;2.87;;
13335;SDS011;6737;51.480;11.962;2022-10-29T05:53:21;6.13;;;2.57;;
13335;SDS011;6737;51.480;11.962;2022-10-29T05:55:47;5.83;;;2.20;;
13335;SDS011;6737;51.480;11.962;2022-10-29T05:58:12;3.63;;;2.60;;
13335;SDS011;6737;51.480;11.962;2022-10-29T06:00:39;4.50;;;2.50;;
13335;SDS011;6737;51.480;11.962;2022-10-29T06:03:09;5.00;;;2.63;;
13335;SDS011;6737;51.480;11.962;2022-10-29T06:05:43;5.87;;;2.80;;
13335;SDS011;6737;51.480;11.962;2022-10-29T06:08:10;6.27;;;2.73;;
13335;SDS011;6737;51.480;11.962;2022-10-29T06:10:36;6.63;;;2.77;;
13335;SDS011;6737;51.480;11.962;2022-10-29T06:13:08;6.77;;;2.57;;
13335;SDS011;6737;51.480;11.962;2022-10-29T06:15:35;5.10;;;2.60;;
13335;SDS011;6737;51.480;11.962;2022-10-29T06:18:01;6.23;;;2.50;;
13335;SDS011;6737;51.480;11.962;2022-10-29T06:20:27;4.23;;;2.50;;
13335;SDS011;6737;51.480;11.962;2022-10-29T06:22:56;4.07;;;2.50;;
13335;SDS011;6737;51.480;11.962;2022-10-29T06:25:22;4.43;;;2.43;;
13335;SDS011;6737;51.480;11.962;2022-10-29T06:28:05;5.40;;;3.10;;
13335;SDS011;6737;51.480;11.962;2022-10-29T06:30:33;6.73;;;2.63;;
13335;SDS011;6737;51.480;11.962;2022-10-29T06:33:01;5.37;;;2.37;;
13335;SDS011;6737;51.480;11.962;2022-10-29T06:35:27;4.23;;;2.40;;
13335;SDS011;6737;51.480;11.962;2022-10-29T06:37:53;4.97;;;2.70;;
13335;SDS011;6737;51.480;11.962;2022-10-29T06:40:19;6.90;;;2.63;;
13335;SDS011;6737;51.480;11.962;2022-10-29T06:42:45;3.47;;;2.20;;
13335;SDS011;6737;51.480;11.962;2022-10-29T06:45:10;3.50;;;2.40;;
13335;SDS011;6737;51.480;11.962;2022-10-29T06:47:43;4.27;;;2.57;;
13335;SDS011;6737;51.480;11.962;2022-10-29T06:50:10;3.83;;;2.17;;
13335;SDS011;6737;51.480;11.962;2022-10-29T06:52:37;5.27;;;2.10;;
13335;SDS011;6737;51.480;11.962;2022-10-29T06:55:03;2.60;;;2.27;;
13335;SDS011;6737;51.480;11.962;2022-10-29T06:57:30;3.37;;;2.13;;
13335;SDS011;6737;51.480;11.962;2022-10-29T06:59:56;5.03;;;2.33;;
13335;SDS011;6737;51.480;11.962;2022-10-29T07:02:22;5.17;;;2.70;;
13335;SDS011;6737;51.480;11.962;2022-10-29T07:04:48;3.07;;;2.27;;
13335;SDS011;6737;51.480;11.962;2022-10-29T07:07:14;4.30;;;2.20;;
13335;SDS011;6737;51.480;11.962;2022-10-29T07:09:40;4.40;;;2.50;;
13335;SDS011;6737;51.480;11.962;2022-10-29T07:12:08;4.70;;;2.53;;
13335;SDS011;6737;51.480;11.962;2022-10-29T07:14:36;4.47;;;2.50;;
13335;SDS011;6737;51.480;11.962;2022-10-29T07:17:01;5.10;;;2.20;;
13335;SDS011;6737;51.480;11.962;2022-10-29T07:19:27;5.83;;;2.70;;
13335;SDS011;6737;51.480;11.962;2022-10-29T07:21:53;6.57;;;2.97;;
13335;SDS011;6737;51.480;11.962;2022-10-29T07:24:18;3.80;;;2.60;;
13335;SDS011;6737;51.480;11.962;2022-10-29T07:26:44;4.00;;;2.30;;
13335;SDS011;6737;51.480;11.962;2022-10-29T07:29:10;5.47;;;2.50;;
13335;SDS011;6737;51.480;11.962;2022-10-29T07:31:36;6.50;;;2.70;;
13335;SDS011;6737;51.480;11.962;2022-10-29T07:34:01;6.37;;;3.73;;
13335;SDS011;6737;51.480;11.962;2022-10-29T07:36:30;4.47;;;3.07;;
13335;SDS011;6737;51.480;11.962;2022-10-29T07:38:56;7.50;;;3.10;;
13335;SDS011;6737;51.480;11.962;2022-10-29T07:41:21;3.67;;;2.90;;
13335;SDS011;6737;51.480;11.962;2022-10-29T07:43:47;8.33;;;3.00;;
13335;SDS011;6737;51.480;11.962;2022-10-29T07:46:13;6.70;;;3.07;;
13335;SDS011;6737;51.480;11.962;2022-10-29T07:48:39;8.83;;;3.60;;
13335;SDS011;6737;51.480;11.962;2022-10-29T07:51:04;8.17;;;3.87;;
13335;SDS011;6737;51.480;11.962;2022-10-29T07:53:30;6.53;;;3.20;;
13335;SDS011;6737;51.480;11.962;2022-10-29T07:55:57;7.30;;;3.50;;
13335;SDS011;6737;51.480;11.962;2022-10-29T07:58:24;6.97;;;3.60;;
13335;SDS011;6737;51.480;11.962;2022-10-29T08:00:50;8.33;;;3.37;;
13335;SDS011;6737;51.480;11.962;2022-10-29T08:03:17;8.77;;;3.57;;
13335;SDS011;6737;51.480;11.962;2022-10-29T08:05:42;5.83;;;3.40;;
13335;SDS011;6737;51.480;11.962;2022-10-29T08:08:10;5.20;;;3.47;;
13335;SDS011;6737;51.480;11.962;2022-10-29T08:10:35;5.57;;;3.53;;
13335;SDS011;6737;51.480;11.962;2022-10-29T08:13:03;6.20;;;3.40;;
13335;SDS011;6737;51.480;11.962;2022-10-29T08:15:31;5.20;;;3.20;;
13335;SDS011;6737;51.480;11.962;2022-10-29T08:17:59;8.07;;;3.20;;
13335;SDS011;6737;51.480;11.962;2022-10-29T08:20:25;6.13;;;3.40;;
13335;SDS011;6737;51.480;11.962;2022-10-29T08:22:52;5.67;;;3.33;;
13335;SDS011;6737;51.480;11.962;2022-10-29T08:25:18;4.70;;;3.07;;
13335;SDS011;6737;51.480;11.962;2022-10-29T08:27:45;4.87;;;2.93;;
13335;SDS011;6737;51.480;11.962;2022-10-29T08:30:21;6.63;;;3.70;;
13335;SDS011;6737;51.480;11.962;2022-10-29T08:32:47;5.27;;;3.60;;
13335;SDS011;6737;51.480;11.962;2022-10-29T08:35:13;9.30;;;3.70;;
13335;SDS011;6737;51.480;11.962;2022-10-29T08:37:42;5.90;;;3.70;;
13335;SDS011;6737;51.480;11.962;2022-10-29T08:40:12;5.97;;;3.67;;
13335;SDS011;6737;51.480;11.962;2022-10-29T08:45:48;9.50;;;3.80;;
13335;SDS011;6737;51.480;11.962;2022-10-29T08:53:50;6.10;;;3.50;;
13335;SDS011;6737;51.480;11.962;2022-10-29T08:56:20;7.07;;;3.50;;
13335;SDS011;6737;51.480;11.962;2022-10-29T08:59:11;5.65;;;3.08;;
13335;SDS011;6737;51.480;11.962;2022-10-29T09:01:42;7.43;;;4.18;;
13335;SDS011;6737;51.480;11.962;2022-10-29T09:04:17;8.63;;;3.67;;
13335;SDS011;6737;51.480;11.962;2022-10-29T09:26:15;6.63;;;3.33;;
13335;SDS011;6737;51.480;11.962;2022-10-29T09:31:52;7.85;;;3.22;;
13335;SDS011;6737;51.480;11.962;2022-10-29T09:34:27;6.78;;;3.25;;
13335;SDS011;6737;51.480;11.962;2022-10-29T09:36:59;5.78;;;3.25;;
13335;SDS011;6737;51.480;11.962;2022-10-29T09:39:27;7.50;;;3.53;;
13335;SDS011;6737;51.480;11.962;2022-10-29T09:42:13;8.40;;;3.47;;
13335;SDS011;6737;51.480;11.962;2022-10-29T09:44:49;5.25;;;3.65;;
13335;SDS011;6737;51.480;11.962;2022-10-29T09:52:50;4.85;;;3.40;;
13335;SDS011;6737;51.480;11.962;2022-10-29T09:55:22;6.97;;;3.38;;
13335;SDS011;6737;51.480;11.962;2022-10-29T09:57:53;7.60;;;3.95;;
13335;SDS011;6737;51.480;11.962;2022-10-29T10:00:22;9.75;;;3.80;;
13335;SDS011;6737;51.480;11.962;2022-10-29T10:05:23;8.30;;;3.33;;
13335;SDS011;6737;51.480;11.962;2022-10-29T10:08:12;8.02;;;3.65;;
13335;SDS011;6737;51.480;11.962;2022-10-29T10:10:48;7.22;;;3.60;;
13335;SDS011;6737;51.480;11.962;2022-10-29T10:13:16;6.43;;;3.08;;
13335;SDS011;6737;51.480;11.962;2022-10-29T10:15:54;4.55;;;2.92;;
13335;SDS011;6737;51.480;11.962;2022-10-29T10:21:12;7.25;;;3.67;;
13335;SDS011;6737;51.480;11.962;2022-10-29T10:23:49;6.18;;;3.30;;
13335;SDS011;6737;51.480;11.962;2022-10-29T10:29:16;7.57;;;3.30;;
13335;SDS011;6737;51.480;11.962;2022-10-29T10:31:44;5.75;;;3.42;;
13335;SDS011;6737;51.480;11.962;2022-10-29T10:34:19;9.23;;;3.70;;
13335;SDS011;6737;51.480;11.962;2022-10-29T10:36:53;8.23;;;3.80;;
13335;SDS011;6737;51.480;11.962;2022-10-29T10:39:35;12.20;;;3.63;;
13335;SDS011;6737;51.480;11.962;2022-10-29T10:42:27;8.57;;;3.33;;
13335;SDS011;6737;51.480;11.962;2022-10-29T10:44:58;5.70;;;3.38;;
13335;SDS011;6737;51.480;11.962;2022-10-29T10:47:30;9.65;;;3.78;;
13335;SDS011;6737;51.480;11.962;2022-10-29T10:50:17;11.23;;;3.80;;
13335;SDS011;6737;51.480;11.962;2022-10-29T10:52:46;8.80;;;3.85;;
13335;SDS011;6737;51.480;11.962;2022-10-29T10:55:21;7.45;;;4.13;;
13335;SDS011;6737;51.480;11.962;2022-10-29T10:58:01;9.30;;;4.25;;
13335;SDS011;6737;51.480;11.962;2022-10-29T11:01:00;8.90;;;3.83;;
13335;SDS011;6737;51.480;11.962;2022-10-29T11:03:36;5.95;;;3.83;;
13335;SDS011;6737;51.480;11.962;2022-10-29T11:06:14;7.88;;;3.80;;
13335;SDS011;6737;51.480;11.962;2022-10-29T11:08:43;7.68;;;4.00;;
13335;SDS011;6737;51.480;11.962;2022-10-29T11:13:40;8.27;;;3.80;;
13335;SDS011;6737;51.480;11.962;2022-10-29T11:16:14;7.43;;;3.55;;
13335;SDS011;6737;51.480;11.962;2022-10-29T11:22:00;7.57;;;3.72;;
13335;SDS011;6737;51.480;11.962;2022-10-29T11:24:40;6.78;;;3.53;;
13335;SDS011;6737;51.480;11.962;2022-10-29T11:27:17;7.20;;;3.60;;
13335;SDS011;6737;51.480;11.962;2022-10-29T11:29:51;7.45;;;3.70;;
13335;SDS011;6737;51.480;11.962;2022-10-29T11:38:14;7.35;;;3.92;;
13335;SDS011;6737;51.480;11.962;2022-10-29T11:43:31;6.70;;;3.50;;
13335;SDS011;6737;51.480;11.962;2022-10-29T12:04:47;8.75;;;3.47;;
13335;SDS011;6737;51.480;11.962;2022-10-29T12:12:47;10.27;;;3.55;;
13335;SDS011;6737;51.480;11.962;2022-10-29T12:15:25;4.82;;;2.58;;
13335;SDS011;6737;51.480;11.962;2022-10-29T12:18:09;7.13;;;2.90;;
13335;SDS011;6737;51.480;11.962;2022-10-29T12:23:35;6.20;;;2.75;;
13335;SDS011;6737;51.480;11.962;2022-10-29T12:26:26;5.30;;;3.05;;
13335;SDS011;6737;51.480;11.962;2022-10-29T12:29:18;7.45;;;3.03;;
13335;SDS011;6737;51.480;11.962;2022-10-29T12:37:24;5.57;;;3.03;;
13335;SDS011;6737;51.480;11.962;2022-10-29T12:40:14;7.40;;;2.97;;
13335;SDS011;6737;51.480;11.962;2022-10-29T12:42:47;15.27;;;3.60;;
13335;SDS011;6737;51.480;11.962;2022-10-29T12:45:22;7.30;;;2.67;;
13335;SDS011;6737;51.480;11.962;2022-10-29T12:53:31;9.02;;;3.05;;
13335;SDS011;6737;51.480;11.962;2022-10-29T12:56:11;9.45;;;3.33;;
13335;SDS011;6737;51.480;11.962;2022-10-29T12:58:49;7.57;;;3.17;;
13335;SDS011;6737;51.480;11.962;2022-10-29T13:11:51;6.78;;;3.28;;
13335;SDS011;6737;51.480;11.962;2022-10-29T13:17:02;10.32;;;3.20;;
13335;SDS011;6737;51.480;11.962;2022-10-29T13:20:04;6.05;;;3.35;;
13335;SDS011;6737;51.480;11.962;2022-10-29T13:33:47;5.95;;;3.10;;
13335;SDS011;6737;51.480;11.962;2022-10-29T13:35:59;5.43;;;3.05;;
13335;SDS011;6737;51.480;11.962;2022-10-29T13:41:25;6.38;;;3.08;;
13335;SDS011;6737;51.480;11.962;2022-10-29T13:44:09;6.43;;;3.13;;
13335;SDS011;6737;51.480;11.962;2022-10-29T13:46:58;8.55;;;3.50;;
13335;SDS011;6737;51.480;11.962;2022-10-29T13:49:33;5.75;;;3.05;;
13335;SDS011;6737;51.480;11.962;2022-10-29T13:52:09;6.15;;;3.35;;
13335;SDS011;6737;51.480;11.962;2022-10-29T14:00:03;6.65;;;3.10;;
13335;SDS011;6737;51.480;11.962;2022-10-29T14:05:20;6.38;;;3.00;;
13335;SDS011;6737;51.480;11.962;2022-10-29T14:13:15;6.38;;;3.40;;
13335;SDS011;6737;51.480;11.962;2022-10-29T14:21:22;8.05;;;3.13;;
13335;SDS011;6737;51.480;11.962;2022-10-29T14:23:57;13.23;;;3.70;;
13335;SDS011;6737;51.480;11.962;2022-10-29T14:26:23;12.77;;;3.90;;
13335;SDS011;6737;51.480;11.962;2022-10-29T14:28:51;7.38;;;3.78;;
13335;SDS011;6737;51.480;11.962;2022-10-29T14:31:21;8.07;;;3.88;;
13335;SDS011;6737;51.480;11.962;2022-10-29T14:33:56;6.95;;;3.70;;
13335;SDS011;6737;51.480;11.962;2022-10-29T14:36:32;7.50;;;3.40;;
13335;SDS011;6737;51.480;11.962;2022-10-29T14:41:47;11.05;;;4.22;;
13335;SDS011;6737;51.480;11.962;2022-10-29T14:49:38;8.90;;;3.22;;
13335;SDS011;6737;51.480;11.962;2022-10-29T14:52:28;9.18;;;4.68;;
13335;SDS011;6737;51.480;11.962;2022-10-29T14:55:13;6.88;;;3.95;;
13335;SDS011;6737;51.480;11.962;2022-10-29T15:00:29;8.18;;;3.70;;
13335;SDS011;6737;51.480;11.962;2022-10-29T15:03:00;9.52;;;3.97;;
13335;SDS011;6737;51.480;11.962;2022-10-29T15:05:27;12.73;;;4.43;;
13335;SDS011;6737;51.480;11.962;2022-10-29T15:13:13;9.50;;;4.50;;
13335;SDS011;6737;51.480;11.962;2022-10-29T15:16:00;10.55;;;4.10;;
13335;SDS011;6737;51.480;11.962;2022-10-29T15:18:29;7.75;;;3.90;;
13335;SDS011;6737;51.480;11.962;2022-10-29T15:20:56;8.00;;;3.42;;
13335;SDS011;6737;51.480;11.962;2022-10-29T15:23:26;7.55;;;4.00;;
13335;SDS011;6737;51.480;11.962;2022-10-29T15:26:16;8.82;;;4.07;;
13335;SDS011;6737;51.480;11.962;2022-10-29T15:28:50;10.85;;;3.83;;
13335;SDS011;6737;51.480;11.962;2022-10-29T15:31:39;6.97;;;3.88;;
13335;SDS011;6737;51.480;11.962;2022-10-29T15:34:17;8.63;;;3.80;;
13335;SDS011;6737;51.480;11.962;2022-10-29T15:36:46;9.35;;;3.70;;
13335;SDS011;6737;51.480;11.962;2022-10-29T15:39:24;10.27;;;3.88;;
13335;SDS011;6737;51.480;11.962;2022-10-29T15:41:53;8.38;;;4.45;;
13335;SDS011;6737;51.480;11.962;2022-10-29T15:44:26;6.00;;;3.85;;
13335;SDS011;6737;51.480;11.962;2022-10-29T15:46:57;7.60;;;4.05;;
13335;SDS011;6737;51.480;11.962;2022-10-29T15:49:25;8.15;;;4.13;;
13335;SDS011;6737;51.480;11.962;2022-10-29T15:51:51;6.10;;;3.90;;
13335;SDS011;6737;51.480;11.962;2022-10-29T15:54:18;9.75;;;4.30;;
13335;SDS011;6737;51.480;11.962;2022-10-29T15:56:45;9.93;;;3.70;;
13335;SDS011;6737;51.480;11.962;2022-10-29T15:59:11;6.85;;;3.33;;
13335;SDS011;6737;51.480;11.962;2022-10-29T16:01:38;7.60;;;3.60;;
13335;SDS011;6737;51.480;11.962;2022-10-29T16:04:04;7.45;;;3.78;;
13335;SDS011;6737;51.480;11.962;2022-10-29T16:06:30;6.78;;;3.97;;
13335;SDS011;6737;51.480;11.962;2022-10-29T16:08:56;5.53;;;3.63;;
13335;SDS011;6737;51.480;11.962;2022-10-29T16:11:24;6.72;;;4.00;;
13335;SDS011;6737;51.480;11.962;2022-10-29T16:13:51;5.22;;;3.53;;
13335;SDS011;6737;51.480;11.962;2022-10-29T16:16:18;10.68;;;4.18;;
13335;SDS011;6737;51.480;11.962;2022-10-29T16:18:49;8.30;;;4.32;;
13335;SDS011;6737;51.480;11.962;2022-10-29T16:21:19;7.50;;;3.72;;
13335;SDS011;6737;51.480;11.962;2022-10-29T16:23:47;6.18;;;3.65;;
13335;SDS011;6737;51.480;11.962;2022-10-29T16:26:14;8.63;;;3.85;;
13335;SDS011;6737;51.480;11.962;2022-10-29T16:28:42;8.00;;;4.25;;
13335;SDS011;6737;51.480;11.962;2022-10-29T16:31:24;8.00;;;4.35;;
13335;SDS011;6737;51.480;11.962;2022-10-29T16:33:52;12.85;;;4.25;;
13335;SDS011;6737;51.480;11.962;2022-10-29T16:36:21;6.20;;;4.10;;
13335;SDS011;6737;51.480;11.962;2022-10-29T16:38:47;11.13;;;4.68;;
13335;SDS011;6737;51.480;11.962;2022-10-29T16:41:15;10.27;;;4.60;;
13335;SDS011;6737;51.480;11.962;2022-10-29T16:43:42;9.07;;;4.10;;
13335;SDS011;6737;51.480;11.962;2022-10-29T16:46:09;7.25;;;4.38;;
13335;SDS011;6737;51.480;11.962;2022-10-29T16:48:35;10.10;;;4.88;;
13335;SDS011;6737;51.480;11.962;2022-10-29T16:51:01;8.60;;;5.30;;
13335;SDS011;6737;51.480;11.962;2022-10-29T16:53:27;12.95;;;5.47;;
13335;SDS011;6737;51.480;11.962;2022-10-29T16:55:53;10.25;;;4.82;;
13335;SDS011;6737;51.480;11.962;2022-10-29T16:58:19;10.48;;;4.65;;
13335;SDS011;6737;51.480;11.962;2022-10-29T17:00:45;11.70;;;4.90;;
13335;SDS011;6737;51.480;11.962;2022-10-29T17:03:12;10.52;;;5.05;;
13335;SDS011;6737;51.480;11.962;2022-10-29T17:05:40;9.18;;;4.80;;
13335;SDS011;6737;51.480;11.962;2022-10-29T17:08:08;9.70;;;5.22;;
13335;SDS011;6737;51.480;11.962;2022-10-29T17:10:34;10.07;;;4.55;;
13335;SDS011;6737;51.480;11.962;2022-10-29T17:12:59;8.43;;;4.80;;
13335;SDS011;6737;51.480;11.962;2022-10-29T17:15:25;6.88;;;4.38;;
13335;SDS011;6737;51.480;11.962;2022-10-29T17:17:51;9.82;;;4.75;;
13335;SDS011;6737;51.480;11.962;2022-10-29T17:20:17;5.95;;;4.25;;
13335;SDS011;6737;51.480;11.962;2022-10-29T17:22:43;12.88;;;5.50;;
13335;SDS011;6737;51.480;11.962;2022-10-29T17:25:09;9.77;;;5.00;;
13335;SDS011;6737;51.480;11.962;2022-10-29T17:27:41;9.95;;;4.78;;
13335;SDS011;6737;51.480;11.962;2022-10-29T17:30:07;12.93;;;5.13;;
13335;SDS011;6737;51.480;11.962;2022-10-29T17:32:34;8.15;;;5.10;;
13335;SDS011;6737;51.480;11.962;2022-10-29T17:35:00;10.95;;;5.75;;
13335;SDS011;6737;51.480;11.962;2022-10-29T17:37:26;7.90;;;5.00;;
13335;SDS011;6737;51.480;11.962;2022-10-29T17:39:52;8.68;;;4.78;;
13335;SDS011;6737;51.480;11.962;2022-10-29T17:42:18;10.70;;;5.43;;
13335;SDS011;6737;51.480;11.962;2022-10-29T17:44:44;9.45;;;5.35;;
13335;SDS011;6737;51.480;11.962;2022-10-29T17:47:10;9.57;;;5.32;;
13335;SDS011;6737;51.480;11.962;2022-10-29T17:49:36;9.77;;;5.10;;
13335;SDS011;6737;51.480;11.962;2022-10-29T17:52:03;9.00;;;5.35;;
13335;SDS011;6737;51.480;11.962;2022-10-29T17:54:29;10.38;;;4.90;;
13335;SDS011;6737;51.480;11.962;2022-10-29T17:56:55;9.95;;;5.07;;
13335;SDS011;6737;51.480;11.962;2022-10-29T17:59:21;11.80;;;5.65;;
13335;SDS011;6737;51.480;11.962;2022-10-29T18:01:47;6.95;;;4.80;;
13335;SDS011;6737;51.480;11.962;2022-10-29T18:04:13;14.80;;;5.40;;
13335;SDS011;6737;51.480;11.962;2022-10-29T18:06:41;9.32;;;4.90;;
13335;SDS011;6737;51.480;11.962;2022-10-29T18:09:07;10.50;;;4.93;;